Time;durP1;ratioP1;P1;durP2;ratioP2;P2;SDS_P1;SDS_P2;PMS_P1;PMS_P2;Temp;Humidity;BMP_temperature;BMP_pressure;BME280_temperature;BME280_humidity;BME280_pressure;Samples;Min_cycle;Max_cycle;Signal;HPM_P1;HPM_P2
2022/05/04 00:00:38;;;;;;;6.63;3.35;;;;;;;9.02;95.33;101908.19;10456170;28;20056;-62
2022/05/04 00:05:40;;;;;;;13.20;5.60;;;;;;;9.05;96.19;101902.84;10457167;28;20049;-62
2022/05/04 00:10:43;;;;;;;8.50;4.35;;;;;;;8.97;95.68;101907.47;10474846;22;20050;-60
2022/05/04 00:15:46;;;;;;;14.65;4.63;;;;;;;9.13;94.75;101913.91;10540352;28;20055;-60
2022/05/04 00:20:48;;;;;;;10.27;4.72;;;;;;;9.09;93.18;101902.72;10540270;28;20132;-60
2022/05/04 00:25:51;;;;;;;15.00;5.40;;;;;;;9.17;95.69;101904.19;10540131;28;20048;-60
2022/05/04 00:30:53;;;;;;;6.88;4.18;;;;;;;9.22;92.82;101904.91;10540039;28;20052;-60
2022/05/04 00:35:55;;;;;;;9.07;4.63;;;;;;;9.18;91.97;101906.75;10539992;28;20230;-60
2022/05/04 00:40:58;;;;;;;9.02;4.03;;;;;;;9.34;94.35;101906.25;10539854;28;20059;-60
2022/05/04 00:46:00;;;;;;;18.98;5.53;;;;;;;9.19;92.18;101905.84;10538678;28;20044;-60
2022/05/04 00:51:03;;;;;;;11.35;4.47;;;;;;;9.31;90.97;101901.94;10539118;28;20044;-60
2022/05/04 00:56:05;;;;;;;8.45;4.60;;;;;;;9.20;92.13;101904.94;10539586;28;20047;-60
2022/05/04 01:01:08;;;;;;;15.07;4.63;;;;;;;9.29;94.03;101898.53;10544781;28;20467;-60
2022/05/04 01:06:10;;;;;;;9.52;4.55;;;;;;;9.06;93.30;101902.81;10545720;28;20048;-60
2022/05/04 01:11:12;;;;;;;14.20;4.80;;;;;;;9.36;91.79;101896.56;10546339;28;20487;-60
2022/05/04 01:16:15;;;;;;;16.45;5.13;;;;;;;9.37;92.46;101903.53;10546973;28;20051;-60
2022/05/04 01:21:17;;;;;;;10.70;4.40;;;;;;;9.39;92.80;101892.09;10546788;28;20048;-60
2022/05/04 01:26:20;;;;;;;13.88;5.15;;;;;;;9.24;91.79;101900.47;10546527;28;20052;-60
2022/05/04 01:31:22;;;;;;;12.15;5.60;;;;;;;9.26;91.75;101904.75;10546372;28;20048;-60
2022/05/04 01:36:25;;;;;;;11.48;4.78;;;;;;;9.28;91.35;101896.84;10546207;28;20044;-60
2022/05/04 01:46:48;;;;;;;10.82;4.63;;;;;;;9.36;89.60;101892.19;10545678;28;20055;-60
2022/05/04 01:51:51;;;;;;;9.02;4.93;;;;;;;9.36;89.66;101894.81;10545558;28;20047;-60
2022/05/04 01:56:53;;;;;;;14.13;5.60;;;;;;;9.42;89.76;101896.38;10545371;28;20380;-60
2022/05/04 02:01:55;;;;;;;11.15;4.75;;;;;;;9.29;91.13;101886.31;10544506;28;20502;-60
2022/05/04 02:06:58;;;;;;;16.13;4.72;;;;;;;9.22;89.41;101890.06;10544257;28;20105;-60
2022/05/04 02:12:00;;;;;;;13.90;6.03;;;;;;;9.36;89.02;101881.75;10542942;28;20066;-60
2022/05/04 02:17:03;;;;;;;10.57;5.30;;;;;;;9.30;90.01;101889.81;10543271;28;20044;-60
2022/05/04 02:22:05;;;;;;;7.78;4.50;;;;;;;9.26;89.90;101894.28;10543713;28;20140;-60
2022/05/04 02:27:07;;;;;;;15.70;4.90;;;;;;;9.14;90.54;101892.06;10544133;28;20051;-60
2022/05/04 02:32:10;;;;;;;13.95;5.10;;;;;;;8.99;91.54;101889.97;10544012;28;20055;-60
2022/05/04 02:42:33;;;;;;;13.00;4.75;;;;;;;8.97;90.28;101889.19;10543495;28;20055;-60
2022/05/04 02:47:35;;;;;;;10.88;5.50;;;;;;;9.13;89.86;101885.16;10543286;28;20051;-60
2022/05/04 02:52:37;;;;;;;11.60;4.88;;;;;;;9.02;89.15;101882.91;10541289;28;20048;-60
2022/05/04 02:57:40;;;;;;;10.27;4.82;;;;;;;9.06;87.96;101881.03;10542921;28;20039;-60
2022/05/04 03:02:42;;;;;;;13.07;4.53;;;;;;;8.80;88.82;101876.69;10542693;28;20048;-60
2022/05/04 03:07:46;;;;;;;13.10;4.85;;;;;;;8.87;87.53;101873.81;10542486;28;20044;-60
2022/05/04 03:12:48;;;;;;;13.52;4.97;;;;;;;8.87;88.59;101881.66;10541876;28;20055;-60
2022/05/04 03:17:50;;;;;;;8.77;4.55;;;;;;;8.89;89.88;101871.16;10542163;28;20048;-60
2022/05/04 03:22:53;;;;;;;12.18;5.30;;;;;;;8.74;91.16;101870.75;10541569;28;20051;-60
2022/05/04 03:27:55;;;;;;;12.63;4.57;;;;;;;8.49;92.95;101867.22;10541016;28;20048;-60
2022/05/04 03:32:57;;;;;;;10.73;4.40;;;;;;;8.45;94.09;101860.41;10540901;28;20415;-60
2022/05/04 03:38:00;;;;;;;9.02;4.75;;;;;;;8.55;91.12;101861.81;10540756;28;20040;-60
2022/05/04 03:43:02;;;;;;;7.65;4.28;;;;;;;8.58;91.48;101860.88;10541226;28;20055;-60
2022/05/04 03:48:04;;;;;;;10.45;4.55;;;;;;;8.50;90.97;101853.28;10541034;28;20044;-60
2022/05/04 03:53:07;;;;;;;9.90;4.68;;;;;;;8.60;91.77;101861.66;10540904;28;20067;-60
2022/05/04 03:58:09;;;;;;;11.00;4.70;;;;;;;8.34;92.99;101864.16;10540226;28;20044;-60
2022/05/04 04:03:11;;;;;;;9.98;4.32;;;;;;;8.51;92.32;101863.66;10540641;28;20052;-60
2022/05/04 04:08:14;;;;;;;11.15;5.25;;;;;;;8.36;94.22;101869.34;10538694;28;20047;-60
2022/05/04 04:13:16;;;;;;;17.17;5.32;;;;;;;8.30;94.82;101866.91;10539918;28;20059;-60
2022/05/04 04:18:19;;;;;;;15.52;5.25;;;;;;;8.34;94.80;101872.00;10540339;28;20054;-60
2022/05/04 04:23:22;;;;;;;13.15;4.22;;;;;;;8.33;95.52;101865.06;10540187;28;20048;-60
2022/05/04 04:28:25;;;;;;;14.10;5.47;;;;;;;8.38;93.55;101865.75;10540125;28;20044;-60
2022/05/04 04:33:29;;;;;;;11.60;5.22;;;;;;;8.25;93.16;101864.44;10541091;28;20048;-60
2022/05/04 04:38:31;;;;;;;11.15;4.75;;;;;;;8.37;91.60;101866.69;10547384;28;20039;-60
2022/05/04 04:43:34;;;;;;;17.83;5.32;;;;;;;8.25;94.58;101871.41;10547681;28;20478;-60
2022/05/04 04:48:36;;;;;;;14.82;5.35;;;;;;;8.18;95.27;101870.75;10547398;28;20502;-60
2022/05/04 04:53:39;;;;;;;6.63;4.72;;;;;;;8.10;94.64;101871.00;10547920;28;20055;-60
2022/05/04 04:58:41;;;;;;;10.50;5.32;;;;;;;8.02;96.06;101872.97;10547709;28;20048;-60
2022/05/04 05:03:43;;;;;;;10.32;4.97;;;;;;;8.21;96.27;101870.66;10547394;28;20505;-60
2022/05/04 05:08:47;;;;;;;17.20;5.85;;;;;;;8.28;94.83;101863.50;10547012;28;20475;-60
2022/05/04 05:19:10;;;;;;;12.07;5.43;;;;;;;8.32;94.87;101870.31;10546900;28;20040;-60
2022/05/04 05:24:13;;;;;;;13.45;5.03;;;;;;;8.31;95.24;101868.63;10546675;28;20052;-60
2022/05/04 05:29:15;;;;;;;10.35;5.40;;;;;;;8.92;90.67;101882.34;10545793;28;20044;-60
2022/05/04 05:34:17;;;;;;;13.07;6.45;;;;;;;8.89;90.01;101877.25;10546291;28;20055;-60
2022/05/04 05:39:19;;;;;;;17.95;5.78;;;;;;;8.85;91.17;101877.38;10544908;28;20051;-60
2022/05/04 05:44:22;;;;;;;14.07;5.43;;;;;;;9.04;89.36;101878.47;10545668;28;20047;-60
2022/05/04 05:49:24;;;;;;;15.98;5.05;;;;;;;8.93;89.72;101881.44;10545043;28;20051;-60
2022/05/04 05:54:27;;;;;;;19.05;5.43;;;;;;;8.83;88.94;101874.81;10545493;28;20056;-60
2022/05/04 05:59:29;;;;;;;10.93;4.85;;;;;;;9.00;86.78;101883.88;10545347;28;20044;-60
2022/05/04 06:04:32;;;;;;;16.23;5.18;;;;;;;8.80;89.15;101884.53;10545120;28;20048;-60
2022/05/04 06:09:34;;;;;;;18.73;5.82;;;;;;;8.71;87.78;101878.69;10543678;28;20048;-60
2022/05/04 06:14:36;;;;;;;12.18;5.05;;;;;;;8.46;86.06;101877.78;10544052;28;20052;-60
2022/05/04 06:19:47;;;;;;;12.50;5.68;;;;;;;8.83;86.89;101889.66;10544606;28;20122;-60
2022/05/04 06:24:49;;;;;;;13.70;4.65;;;;;;;9.27;85.43;101893.38;10543636;28;20052;-60
2022/05/04 06:35:13;;;;;;;16.73;5.65;;;;;;;9.84;80.44;101893.13;10543907;28;20052;-60
2022/05/04 06:40:15;;;;;;;16.42;4.88;;;;;;;9.82;80.94;101895.78;10543672;28;20052;-60
2022/05/04 06:45:18;;;;;;;10.25;5.47;;;;;;;9.59;79.03;101898.38;10542175;28;20055;-60
2022/05/04 06:50:20;;;;;;;22.30;7.72;;;;;;;9.67;82.54;101897.19;10543222;28;20059;-59
2022/05/04 06:55:22;;;;;;;12.32;5.35;;;;;;;10.06;80.67;101894.94;10541835;28;20423;-59
2022/05/04 07:00:25;;;;;;;12.70;4.85;;;;;;;9.71;78.80;101895.31;10542766;28;20044;-59
2022/05/04 07:05:27;;;;;;;15.13;4.95;;;;;;;10.13;75.02;101889.41;10542526;28;20048;-60
2022/05/04 07:10:29;;;;;;;13.50;5.30;;;;;;;10.49;75.12;101895.91;10542509;28;20048;-60
2022/05/04 07:15:32;;;;;;;11.07;4.75;;;;;;;11.30;72.39;101899.59;10541643;28;20052;-60
2022/05/04 07:20:34;;;;;;;13.23;5.70;;;;;;;11.43;74.61;101890.28;10542090;28;20048;-60
2022/05/04 07:25:36;;;;;;;12.05;4.82;;;;;;;11.02;71.19;101890.28;10541165;28;20501;-60
2022/05/04 07:30:39;;;;;;;14.40;5.22;;;;;;;11.30;70.79;101883.88;10541038;28;20051;-60
2022/05/04 07:35:41;;;;;;;10.75;5.47;;;;;;;12.43;64.44;101883.13;10541583;28;20055;-60
2022/05/04 07:46:05;;;;;;;13.02;4.40;;;;;;;11.68;64.98;101882.19;10541219;28;20078;-60
2022/05/04 07:51:08;;;;;;;15.27;4.60;;;;;;;12.77;63.58;101888.53;10540458;28;20048;-62
2022/05/04 07:56:10;;;;;;;12.25;4.13;;;;;;;13.25;62.51;101902.78;10540908;28;20052;-63
2022/05/04 08:06:33;;;;;;;10.55;4.22;;;;;;;14.18;60.40;101895.28;10540643;28;20048;-63
2022/05/04 08:11:36;;;;;;;9.60;3.38;;;;;;;13.67;60.83;101890.97;10540431;28;20063;-63
2022/05/04 08:16:39;;;;;;;14.25;4.57;;;;;;;14.49;60.26;101897.91;10539745;28;20047;-63
2022/05/04 08:21:42;;;;;;;9.25;4.93;;;;;;;12.85;61.20;101896.03;10538534;28;20445;-63
2022/05/04 08:26:44;;;;;;;19.75;5.22;;;;;;;13.99;58.08;101887.56;10540070;28;20045;-63
2022/05/04 08:31:46;;;;;;;12.88;5.22;;;;;;;14.64;57.36;101890.09;10540094;28;20055;-63
2022/05/04 08:36:49;;;;;;;11.45;5.55;;;;;;;13.34;59.42;101897.06;10539945;28;20445;-63
2022/05/04 08:41:52;;;;;;;5.97;3.72;;;;;;;16.30;54.90;101887.97;10539955;28;20079;-63
2022/05/04 08:46:56;;;;;;;13.77;4.68;;;;;;;15.55;55.87;101888.25;10537920;28;20483;-63
2022/05/04 08:51:59;;;;;;;11.13;4.78;;;;;;;15.35;54.66;101878.06;10538511;28;20052;-63
2022/05/04 08:57:02;;;;;;;10.02;4.45;;;;;;;16.80;53.04;101880.34;10539685;28;20044;-63
2022/05/04 09:02:05;;;;;;;12.38;5.32;;;;;;;15.17;57.03;101880.84;10537900;28;20048;-63
2022/05/04 09:07:23;;;;;;;12.77;5.15;;;;;;;16.98;52.29;101877.44;10539250;28;20044;-63
2022/05/04 09:12:32;;;;;;;8.23;4.43;;;;;;;17.69;49.83;101872.59;10537591;28;20513;-63
2022/05/04 09:17:34;;;;;;;10.60;4.93;;;;;;;17.05;53.34;101870.78;10539245;28;20048;-63
2022/05/04 09:22:37;;;;;;;11.93;5.90;;;;;;;18.24;48.09;101862.50;10545489;28;20044;-63
2022/05/04 09:27:39;;;;;;;9.73;5.43;;;;;;;17.26;51.35;101866.69;10546889;28;20060;-64
2022/05/04 09:32:42;;;;;;;13.70;5.45;;;;;;;17.56;48.38;101854.06;10546434;28;20052;-63
2022/05/04 09:48:37;;;;;;;14.13;5.15;;;;;;;15.83;53.94;101857.50;10544847;28;20044;-64
2022/05/04 09:53:40;;;;;;;16.20;5.85;;;;;;;17.48;48.76;101845.81;10545045;28;20398;-64
2022/05/04 09:58:42;;;;;;;6.43;4.57;;;;;;;18.52;48.39;101854.19;10545388;28;20055;-64
2022/05/04 10:03:50;;;;;;;10.23;5.05;;;;;;;16.71;50.03;101849.22;10545267;28;20055;-64
2022/05/04 10:08:52;;;;;;;10.23;5.10;;;;;;;17.17;47.69;101840.84;10543874;28;20044;-63
2022/05/04 10:13:55;;;;;;;8.85;5.13;;;;;;;18.32;46.62;101837.09;10544277;28;20060;-64
2022/05/04 10:19:00;;;;;;;9.55;4.47;;;;;;;18.12;45.48;101837.72;10543478;28;20048;-64
2022/05/04 10:24:07;;;;;;;8.95;4.68;;;;;;;18.75;46.58;101849.81;10542617;28;20387;-64
2022/05/04 10:35:21;;;;;;;7.68;5.10;;;;;;;18.25;44.69;101841.19;10543204;28;20521;-64
2022/05/04 10:40:25;;;;;;;9.80;4.32;;;;;;;20.47;43.28;101836.41;10543819;28;20123;-64
2022/05/04 10:45:42;;;;;;;8.77;4.00;;;;;;;20.56;43.89;101827.63;10543499;28;20058;-64
2022/05/04 10:50:51;;;;;;;8.23;4.80;;;;;;;19.83;41.12;101828.22;10543796;28;20044;-64
2022/05/04 10:56:03;;;;;;;8.85;4.07;;;;;;;19.14;43.70;101820.38;10543064;28;20056;-64
2022/05/04 11:01:08;;;;;;;9.98;5.07;;;;;;;19.24;43.86;101821.34;10542972;28;20055;-64
2022/05/04 11:06:11;;;;;;;7.93;4.47;;;;;;;21.66;40.61;101817.34;10540815;28;20044;-64
2022/05/04 11:11:16;;;;;;;8.20;4.68;;;;;;;21.82;40.97;101814.19;10541255;28;20051;-64
2022/05/04 11:16:26;;;;;;;7.30;4.40;;;;;;;21.32;41.53;101814.13;10540385;28;20397;-64
2022/05/04 11:21:30;;;;;;;12.97;5.73;;;;;;;21.39;39.62;101823.25;10542238;28;20154;-64
2022/05/04 11:26:39;;;;;;;10.35;5.95;;;;;;;22.44;41.04;101814.81;10556929;28;20498;-64
2022/05/04 11:31:47;;;;;;;8.70;5.32;;;;;;;22.79;39.81;101809.84;10541146;28;20055;-64
2022/05/04 11:36:51;;;;;;;6.82;4.68;;;;;;;23.24;38.46;101797.66;10541615;28;20040;-64
2022/05/04 11:41:55;;;;;;;9.05;4.93;;;;;;;24.10;37.51;101789.28;10540052;28;20058;-64
2022/05/04 11:47:00;;;;;;;7.05;4.57;;;;;;;23.72;34.65;101789.38;10541187;28;20047;-64
2022/05/04 11:52:04;;;;;;;8.75;5.38;;;;;;;22.19;39.66;101792.19;10540501;28;20399;-64
2022/05/04 11:57:19;;;;;;;9.02;6.47;;;;;;;22.99;36.75;101787.44;10540874;28;20048;-64
2022/05/04 12:02:25;;;;;;;6.03;5.20;;;;;;;21.14;41.24;101788.09;10540230;28;20043;-64
2022/05/04 12:07:27;;;;;;;9.25;6.15;;;;;;;21.77;40.57;101780.91;10539937;28;20044;-64
2022/05/04 12:12:30;;;;;;;8.60;5.03;;;;;;;22.36;38.50;101782.66;10539823;28;20048;-64
2022/05/04 12:17:36;;;;;;;10.05;6.28;;;;;;;22.55;39.33;101771.13;10540408;28;20051;-64
2022/05/04 12:22:38;;;;;;;11.05;5.75;;;;;;;24.66;38.13;101763.16;10539691;28;20080;-64
2022/05/04 12:27:42;;;;;;;6.53;5.70;;;;;;;21.75;37.80;101756.22;10508369;22;20041;-65
2022/05/04 12:38:06;;;;;;;;;;;;;;;23.92;36.98;101765.22;10455517;28;20053;-66
2022/05/04 12:43:08;;;;;;;11.88;6.60;;;;;;;22.75;36.92;101755.91;10456612;28;19920;-65
2022/05/04 12:48:11;;;;;;;11.52;5.70;;;;;;;22.39;36.73;101755.72;10456471;28;20045;-65
2022/05/04 12:53:16;;;;;;;6.00;4.88;;;;;;;25.15;35.04;101758.09;10455296;28;20045;-66
2022/05/04 12:58:18;;;;;;;8.07;5.03;;;;;;;22.68;38.42;101753.94;10463660;28;20041;-66
2022/05/04 13:03:20;;;;;;;10.02;5.95;;;;;;;22.89;34.78;101748.41;10464301;28;20049;-65
2022/05/04 13:08:23;;;;;;;12.45;6.22;;;;;;;23.33;36.28;101752.22;10462898;28;20049;-63
2022/05/04 13:13:26;;;;;;;7.13;5.40;;;;;;;22.57;38.67;101757.63;10463276;28;20072;-63
2022/05/04 13:18:28;;;;;;;11.73;6.22;;;;;;;21.88;36.92;101740.81;10461971;28;20515;-63
2022/05/04 13:23:30;;;;;;;11.48;5.07;;;;;;;24.46;34.85;101744.59;10463583;28;20052;-67
2022/05/04 13:28:33;;;;;;;8.02;4.88;;;;;;;23.52;36.15;101729.03;10461640;28;20052;-66
2022/05/04 13:33:35;;;;;;;10.70;5.32;;;;;;;23.78;34.75;101731.78;10463052;28;20470;-66
2022/05/04 13:38:37;;;;;;;12.20;5.30;;;;;;;23.91;34.48;101737.63;10462943;28;20122;-67
2022/05/04 13:43:41;;;;;;;12.48;5.80;;;;;;;21.58;36.68;101734.56;10462692;28;20049;-66
2022/05/04 13:48:44;;;;;;;11.52;5.55;;;;;;;23.05;34.48;101721.06;10462427;28;20045;-66
2022/05/04 13:53:46;;;;;;;16.73;6.45;;;;;;;22.32;38.41;101727.06;10461669;28;20480;-66
2022/05/04 13:58:49;;;;;;;12.13;6.57;;;;;;;24.30;35.09;101726.59;10477023;28;20060;-66
2022/05/04 14:03:51;;;;;;;10.38;5.25;;;;;;;24.96;32.28;101724.31;10461338;28;20407;-66
2022/05/04 14:08:53;;;;;;;11.95;6.00;;;;;;;24.46;34.00;101716.97;10461253;28;20041;-66
2022/05/04 14:19:17;;;;;;;11.95;6.78;;;;;;;22.11;36.27;101706.72;10461890;28;20124;-66
2022/05/04 14:24:19;;;;;;;9.13;5.82;;;;;;;22.66;36.53;101706.03;10460596;28;20403;-66
2022/05/04 14:29:22;;;;;;;9.65;6.30;;;;;;;22.19;35.19;101700.66;10460270;28;20059;-66
2022/05/04 14:34:24;;;;;;;8.77;5.63;;;;;;;21.30;37.51;101693.53;10459668;28;20055;-66
2022/05/04 14:39:27;;;;;;;12.27;5.28;;;;;;;23.73;35.87;101696.66;10459951;28;20049;-66
2022/05/04 14:44:29;;;;;;;10.38;6.05;;;;;;;21.62;35.98;101693.38;10460373;28;20045;-66
2022/05/04 14:49:31;;;;;;;11.35;6.85;;;;;;;21.95;38.14;101680.59;10459466;28;20498;-66
2022/05/04 14:54:34;;;;;;;12.88;6.82;;;;;;;20.19;39.29;101687.97;10460031;28;20049;-66
2022/05/04 14:59:37;;;;;;;10.82;6.25;;;;;;;21.92;38.47;101688.03;10457999;28;20400;-66
2022/05/04 15:10:01;;;;;;;9.20;6.65;;;;;;;22.22;39.17;101682.53;10459374;28;20049;-66
2022/05/04 15:15:04;;;;;;;13.27;7.38;;;;;;;22.45;37.81;101685.75;10459194;28;20053;-66
2022/05/04 15:20:06;;;;;;;13.63;7.75;;;;;;;20.77;41.32;101679.50;10457803;28;20071;-66
2022/05/04 15:25:09;;;;;;;14.23;7.50;;;;;;;21.05;41.00;101674.44;10457684;28;20049;-66
2022/05/04 15:30:12;;;;;;;12.73;7.07;;;;;;;21.29;41.68;101667.91;10457114;28;20059;-66
2022/05/04 15:35:15;;;;;;;11.18;6.63;;;;;;;21.99;38.60;101668.69;10458384;28;20501;-66
2022/05/04 15:40:17;;;;;;;13.43;6.65;;;;;;;20.86;42.36;101671.69;10458794;28;20040;-66
2022/05/04 15:45:20;;;;;;;13.35;6.32;;;;;;;19.14;43.15;101676.22;10458007;28;20053;-66
2022/05/04 15:50:23;;;;;;;23.08;8.02;;;;;;;18.79;43.88;101667.38;10457785;28;20048;-65
2022/05/04 15:55:25;;;;;;;10.00;6.90;;;;;;;20.03;42.23;101675.13;10456631;28;20045;-65
2022/05/04 16:00:28;;;;;;;11.45;6.88;;;;;;;19.84;44.87;101677.63;10456384;28;20477;-66
2022/05/04 16:05:31;;;;;;;11.10;7.00;;;;;;;20.06;44.08;101683.81;10457485;28;20057;-66
2022/05/04 16:10:33;;;;;;;13.48;7.22;;;;;;;19.74;44.28;101672.19;10456630;28;20084;-66
2022/05/04 16:15:36;;;;;;;9.40;7.47;;;;;;;19.01;45.38;101666.56;10457277;28;20053;-66
2022/05/04 16:26:02;;;;;;;15.43;8.30;;;;;;;18.00;47.37;101667.25;10456769;28;20045;-65
2022/05/04 16:31:07;;;;;;;10.90;8.30;;;;;;;18.30;47.89;101665.91;10461493;28;20049;-58
2022/05/04 16:36:10;;;;;;;14.10;8.48;;;;;;;18.41;47.68;101668.56;10465467;28;20055;-58
2022/05/04 16:41:13;;;;;;;12.80;7.68;;;;;;;18.04;48.70;101674.03;10464596;28;20403;-58
2022/05/04 16:46:15;;;;;;;15.30;8.00;;;;;;;17.80;48.30;101658.09;10465062;28;20048;-58
2022/05/04 16:51:19;;;;;;;15.30;7.95;;;;;;;17.43;47.25;101666.97;10464736;28;20076;-58
2022/05/04 16:56:23;;;;;;;11.90;7.28;;;;;;;18.40;47.16;101661.56;10463996;28;20061;-58
2022/05/04 17:01:25;;;;;;;14.63;8.30;;;;;;;17.85;48.58;101665.72;10463311;28;20045;-58
2022/05/04 17:06:27;;;;;;;15.88;8.43;;;;;;;17.36;49.17;101667.53;10464752;28;20128;-58
2022/05/04 17:11:30;;;;;;;11.23;7.47;;;;;;;17.31;50.09;101670.50;10464053;28;20041;-62
2022/05/04 17:16:32;;;;;;;10.90;7.13;;;;;;;17.69;49.50;101663.38;10463291;28;20070;-62
2022/05/04 17:21:35;;;;;;;15.27;7.35;;;;;;;17.70;49.21;101667.69;10463772;28;20056;-62
2022/05/04 17:26:38;;;;;;;11.18;7.07;;;;;;;17.87;49.98;101667.34;10463183;28;20065;-62
2022/05/04 17:31:40;;;;;;;14.32;7.28;;;;;;;17.56;49.97;101668.72;10463054;28;20041;-63
2022/05/04 17:36:42;;;;;;;12.73;7.93;;;;;;;17.38;49.16;101676.19;10462482;28;20052;-62
2022/05/04 17:41:45;;;;;;;13.38;6.60;;;;;;;17.49;50.42;101675.44;10462389;28;20045;-62
2022/05/04 17:46:48;;;;;;;6.78;3.10;;;;;;;17.91;47.91;101684.69;10462643;28;20060;-62
2022/05/04 17:51:50;;;;;;;11.00;3.38;;;;;;;17.32;50.83;101689.88;10462492;28;20052;-62
2022/05/04 17:56:53;;;;;;;11.52;3.17;;;;;;;16.83;51.17;101699.47;10462275;28;20049;-62
2022/05/04 18:07:17;;;;;;;11.45;3.20;;;;;;;16.87;50.40;101693.03;10461398;28;20053;-62
2022/05/04 18:12:19;;;;;;;8.40;3.33;;;;;;;16.04;52.69;101698.59;10461692;28;20049;-62
2022/05/04 18:17:21;;;;;;;13.55;3.63;;;;;;;15.97;53.08;101693.75;10461516;28;20048;-62
2022/05/04 18:22:24;;;;;;;9.00;3.03;;;;;;;16.04;53.29;101706.53;10460680;28;20119;-62
2022/05/04 18:27:26;;;;;;;7.45;3.17;;;;;;;15.71;55.73;101710.41;10460745;28;20052;-62
2022/05/04 18:32:29;;;;;;;7.95;3.33;;;;;;;15.24;56.98;101707.22;10460881;28;20048;-62
2022/05/04 18:37:32;;;;;;;10.90;3.83;;;;;;;15.19;57.59;101714.56;10460008;28;20041;-62
2022/05/04 18:42:34;;;;;;;5.82;2.63;;;;;;;14.87;59.76;101720.03;10460543;28;20053;-62
2022/05/04 18:47:37;;;;;;;5.28;2.88;;;;;;;14.61;61.69;101725.09;10458429;28;20502;-62
2022/05/04 18:52:39;;;;;;;8.15;2.67;;;;;;;14.54;61.69;101726.38;10459237;28;20049;-62
2022/05/04 18:57:42;;;;;;;5.88;2.63;;;;;;;13.89;65.00;101729.25;10459310;28;20506;-62
2022/05/04 19:02:44;;;;;;;6.15;2.53;;;;;;;14.02;64.85;101729.38;10459628;28;20399;-62
2022/05/04 19:07:47;;;;;;;7.85;3.50;;;;;;;13.55;65.54;101750.41;10458962;28;20075;-65
2022/05/04 19:12:49;;;;;;;10.35;3.05;;;;;;;13.49;66.39;101761.25;10459374;28;20056;-64
2022/05/04 19:17:51;;;;;;;6.90;3.10;;;;;;;13.00;69.96;101761.22;10459182;28;20041;-65
2022/05/04 19:22:54;;;;;;;8.90;3.20;;;;;;;13.04;68.66;101770.63;10458411;28;20487;-65
2022/05/04 19:27:56;;;;;;;14.00;4.25;;;;;;;12.57;71.80;101780.00;10458282;28;20060;-64
2022/05/04 19:32:59;;;;;;;9.05;2.90;;;;;;;13.27;67.67;101779.09;10458583;28;20076;-64
2022/05/04 19:38:04;;;;;;;18.95;7.60;;;;;;;12.53;73.15;101793.38;10458401;28;20049;-64
2022/05/04 19:43:06;;;;;;;9.80;3.60;;;;;;;12.50;73.90;101801.41;10457645;28;20088;-60
2022/05/04 19:48:09;;;;;;;10.48;4.05;;;;;;;12.34;73.42;101804.81;10457976;28;20049;-59
2022/05/04 19:53:11;;;;;;;10.52;4.53;;;;;;;12.17;73.55;101810.88;10472618;28;20510;-60
2022/05/04 19:58:13;;;;;;;9.13;4.10;;;;;;;12.03;74.63;101821.16;10457739;28;20045;-59
2022/05/04 20:03:16;;;;;;;8.80;4.78;;;;;;;11.98;76.43;101820.53;10457418;28;20055;-59
2022/05/04 20:08:18;;;;;;;12.88;5.28;;;;;;;11.94;77.30;101827.69;10457225;28;20056;-59
2022/05/04 20:13:20;;;;;;;11.23;4.32;;;;;;;11.45;79.71;101833.38;10456714;28;20049;-59
2022/05/04 20:18:29;;;;;;;11.35;4.18;;;;;;;11.52;79.92;101839.19;10456111;28;20049;-59
2022/05/04 20:23:34;;;;;;;6.35;3.92;;;;;;;11.46;80.07;101842.94;10457113;28;20057;-60
2022/05/04 20:28:36;;;;;;;11.82;4.55;;;;;;;11.11;81.53;101840.09;10456264;28;20484;-59
2022/05/04 20:33:38;;;;;;;9.90;3.95;;;;;;;10.92;82.83;101841.78;10455000;28;20053;-59
2022/05/04 20:38:59;;;;;;;9.07;4.43;;;;;;;11.06;82.68;101843.81;10456157;28;20056;-59
2022/05/04 20:44:02;;;;;;;8.52;4.35;;;;;;;10.83;83.61;101853.50;10456775;28;20053;-59
2022/05/04 20:49:07;;;;;;;9.48;4.10;;;;;;;10.87;83.50;101844.59;10455834;28;20495;-59
2022/05/04 20:54:10;;;;;;;9.60;4.72;;;;;;;10.84;83.58;101844.72;10456439;28;20381;-59
2022/05/04 20:59:14;;;;;;;8.30;4.40;;;;;;;10.70;83.00;101852.31;10456333;28;20053;-59
2022/05/04 21:04:17;;;;;;;12.45;5.22;;;;;;;10.64;85.08;101847.31;10455128;28;20056;-59
2022/05/04 21:09:19;;;;;;;10.18;4.28;;;;;;;10.48;85.02;101850.56;10456079;28;20045;-59
2022/05/04 21:14:22;;;;;;;11.52;5.70;;;;;;;10.40;86.29;101852.63;10456089;28;20057;-59
2022/05/04 21:19:24;;;;;;;9.48;4.82;;;;;;;10.31;86.33;101851.22;10463714;28;20052;-59
2022/05/04 21:24:26;;;;;;;11.70;4.63;;;;;;;10.27;86.33;101851.38;10462476;28;20056;-60
2022/05/04 21:29:29;;;;;;;16.38;5.80;;;;;;;10.40;84.98;101856.09;10462967;28;20056;-59
2022/05/04 21:34:31;;;;;;;7.30;4.15;;;;;;;10.30;86.58;101869.59;10463285;28;20476;-63
2022/05/04 21:39:34;;;;;;;9.65;4.60;;;;;;;10.25;87.06;101871.53;10462433;28;20518;-63
2022/05/04 21:44:36;;;;;;;7.80;3.80;;;;;;;10.05;88.22;101867.91;10462878;28;20049;-63
2022/05/04 21:49:44;;;;;;;13.80;5.82;;;;;;;10.14;86.60;101864.94;10462635;28;20045;-63
2022/05/04 21:54:47;;;;;;;11.48;5.57;;;;;;;10.20;88.25;101869.97;10462479;28;20061;-63
2022/05/04 21:59:49;;;;;;;9.48;5.38;;;;;;;10.03;87.55;101872.34;10461632;28;20400;-63
2022/05/04 22:04:52;;;;;;;12.70;5.45;;;;;;;9.88;89.86;101879.00;10462127;28;20072;-63
2022/05/04 22:09:54;;;;;;;7.55;5.40;;;;;;;9.88;89.79;101872.94;10461196;28;20052;-63
2022/05/04 22:14:57;;;;;;;8.50;4.68;;;;;;;9.88;89.05;101880.78;10461644;28;20057;-63
2022/05/04 22:19:59;;;;;;;14.70;6.82;;;;;;;9.90;89.48;101882.44;10461546;28;20045;-64
2022/05/04 22:25:02;;;;;;;13.32;5.03;;;;;;;9.80;90.46;101887.16;10460702;28;20408;-64
2022/05/04 22:30:06;;;;;;;14.57;6.25;;;;;;;9.73;90.23;101887.41;10460435;28;20049;-63
2022/05/04 22:35:09;;;;;;;11.02;5.78;;;;;;;9.53;91.89;101904.69;10460893;28;20049;-63
2022/05/04 22:40:12;;;;;;;12.63;4.90;;;;;;;9.58;91.85;101899.28;10460748;28;20041;-63
2022/05/04 22:45:14;;;;;;;6.85;5.00;;;;;;;9.41;92.02;101899.88;10459865;28;20060;-63
2022/05/04 22:50:17;;;;;;;16.73;4.75;;;;;;;9.64;89.92;101906.91;10460250;28;20052;-63
2022/05/04 22:55:19;;;;;;;7.95;5.53;;;;;;;9.51;91.24;101911.72;10459604;28;20049;-63
2022/05/04 23:00:22;;;;;;;14.40;5.55;;;;;;;9.48;91.05;101917.91;10459911;28;20052;-63
2022/05/04 23:05:24;;;;;;;9.25;5.25;;;;;;;9.53;90.71;101911.66;10459711;28;20064;-63
2022/05/04 23:10:27;;;;;;;10.82;5.28;;;;;;;9.16;92.50;101903.31;10459450;28;20491;-59
2022/05/04 23:20:50;;;;;;;10.70;5.73;;;;;;;9.30;92.06;101911.56;10459133;28;20099;-59
2022/05/04 23:25:53;;;;;;;10.50;5.78;;;;;;;9.19;92.18;101905.84;10458376;28;20048;-59
2022/05/04 23:30:55;;;;;;;10.95;6.07;;;;;;;9.26;92.38;101906.50;10457892;28;20072;-63
2022/05/04 23:37:25;;;;;;;12.95;5.85;;;;;;;9.26;92.81;101915.19;10457980;28;20506;-63
2022/05/04 23:41:20;;;;;;;11.57;5.80;;;;;;;9.40;92.95;101912.09;10457949;28;20052;-63
2022/05/04 23:46:22;;;;;;;11.23;6.18;;;;;;;9.57;91.77;101910.66;10472918;28;20045;-63
2022/05/04 23:51:25;;;;;;;12.85;5.85;;;;;;;9.61;92.96;101912.25;10457943;28;20044;-63
2022/05/04 23:56:28;;;;;;;11.68;6.10;;;;;;;9.55;94.29;101909.84;10457866;28;20073;-63
